PADU

Details ICAO PADU (DUT)
Name UNALASKA
Region USA (Alaska)
Timezone America/Adak (UTC-10.0)
Plans Departing 63
Arriving 67
Stats Elevation 22 ft / 7 m (AMSL)
Location 53.899070° -166.545064°
Runways 1
Magnetic Variation 9.103° E
Sunrise 2018-01-21 19:10:16 UTC / 2018-01-21 09:10:16 Local
Sunset 2018-01-22 03:27:07 UTC / 2018-01-21 17:27:07 Local
Advertisement - Login to hide

Runways

ID Width Length Bearing (true) Bearing (mag) Surface Threshold Offset Overrun Length
12 100 ft / 30 m 3,895 ft / 1,187 m 135.64° 126.54° Asphalt 100 ft / 30 m 0 ft / 0 m
30 100 ft / 30 m 3,895 ft / 1,187 m 315.65° 306.55° Asphalt 101 ft / 31 m 0 ft / 0 m

Map

Weather


0- 5 10 15 20 25 30 35+ Temperature / ° C

Clouds and Precipitation
Forecast for 2018-01-22 06:00 UTC. Updated an hour ago

Ground ~20,000 ft ~40,000 ft Winds

METAR

PADU 220150Z 36020G35KT 290V030 10SM -SN SCT009 BKN014 OVC023 00/M03 3018 RMK OBS WND 36038/44 BLK WTR NE NW BP

TAF

PADU 212340Z 2200/2224 33025G35KT P6SM -SHSN SCT009 BKN015 OVC025 TEMPO 2200/2204 3SM -SHSN SCT015 BKN025 FM220600 33028G38KT P6SM -SHSN SCT022 BKN040

Frequencies

Recorded 125.80 MHz AWOS 3
Unicom 122.60 MHz CTAF
Warning: Do not use this data for real-world aviation or navigation. No guarantee of current accuracy is given.